createdAt,value
2023-05-23T00:00:52.230Z,76.38
2023-05-23T00:03:23.068Z,76.67
2023-05-23T00:05:51.464Z,76.94
2023-05-23T00:08:18.295Z,77.26
2023-05-23T00:10:45.548Z,77.14
2023-05-23T00:13:15.348Z,77.12
2023-05-23T00:15:42.418Z,77.00
2023-05-23T00:18:12.468Z,76.92
2023-05-23T00:20:43.042Z,77.01
2023-05-23T00:23:10.489Z,77.29
2023-05-23T00:25:37.703Z,77.20
2023-05-23T00:28:05.110Z,77.06
2023-05-23T00:30:32.890Z,76.88
2023-05-23T00:33:01.078Z,76.89
2023-05-23T00:35:28.006Z,76.81
2023-05-23T00:37:55.678Z,76.73
2023-05-23T00:40:22.951Z,76.66
2023-05-23T00:42:49.923Z,76.66
2023-05-23T00:45:17.253Z,76.62
2023-05-23T00:47:43.998Z,76.21
2023-05-23T00:50:16.882Z,76.05
2023-05-23T00:52:45.069Z,75.76
2023-05-23T00:55:12.609Z,75.62
2023-05-23T00:57:44.628Z,75.49
2023-05-23T01:00:12.452Z,75.38
2023-05-23T01:02:41.785Z,75.18
2023-05-23T01:05:08.966Z,75.19
2023-05-23T01:07:36.218Z,75.48
2023-05-23T01:10:03.675Z,75.31
2023-05-23T01:12:39.896Z,75.19
2023-05-23T01:15:08.950Z,75.07
2023-05-23T01:17:45.137Z,75.02
2023-05-23T01:20:12.873Z,74.95
2023-05-23T01:22:48.791Z,74.83
2023-05-23T01:25:22.182Z,74.69
2023-05-23T01:27:50.549Z,74.48
2023-05-23T01:30:18.573Z,74.36
2023-05-23T01:32:47.520Z,74.37
2023-05-23T01:35:14.749Z,74.36
2023-05-23T01:37:41.530Z,74.02
2023-05-23T01:40:09.333Z,73.93
2023-05-23T01:42:36.762Z,73.50
2023-05-23T01:45:04.292Z,73.19
2023-05-23T01:47:31.549Z,72.83
2023-05-23T01:49:58.502Z,72.52
2023-05-23T01:52:26.206Z,72.29
2023-05-23T01:54:54.028Z,72.07
2023-05-23T01:57:20.950Z,71.96
2023-05-23T01:59:48.128Z,71.79
2023-05-23T02:02:15.469Z,71.80
2023-05-23T02:04:42.408Z,71.95
2023-05-23T02:07:09.267Z,71.61
2023-05-23T02:09:36.066Z,71.59
2023-05-23T02:12:02.897Z,71.45
2023-05-23T02:14:29.882Z,71.29
2023-05-23T02:16:56.707Z,70.96
2023-05-23T02:19:23.799Z,70.68
2023-05-23T02:21:51.050Z,70.13
2023-05-23T02:24:18.495Z,69.90
2023-05-23T02:26:45.493Z,69.68
2023-05-23T02:29:12.239Z,69.79
2023-05-23T02:31:39.095Z,69.84
2023-05-23T02:34:06.106Z,69.66
2023-05-23T02:36:33.578Z,69.75
2023-05-23T02:39:00.573Z,69.79
2023-05-23T02:41:27.480Z,69.86
2023-05-23T02:43:54.616Z,69.76
2023-05-23T02:46:21.561Z,69.76
2023-05-23T02:48:48.808Z,69.86
2023-05-23T02:51:15.811Z,69.86
2023-05-23T02:53:42.883Z,70.02
2023-05-23T02:56:09.988Z,69.94
2023-05-23T02:58:37.078Z,70.01
2023-05-23T03:01:05.399Z,69.85
2023-05-23T03:03:33.517Z,69.77
2023-05-23T03:06:03.487Z,69.41
2023-05-23T03:08:30.247Z,68.73
2023-05-23T03:10:57.032Z,68.23
2023-05-23T03:13:23.865Z,67.71
2023-05-23T03:15:50.658Z,66.82
2023-05-23T03:18:17.440Z,65.86
2023-05-23T03:20:44.295Z,64.78
2023-05-23T03:23:11.030Z,63.73
2023-05-23T03:25:37.906Z,63.20
2023-05-23T03:28:04.908Z,62.57
2023-05-23T03:30:31.822Z,62.23
2023-05-23T03:32:58.723Z,61.86
2023-05-23T03:35:25.572Z,61.21
2023-05-23T03:37:52.382Z,60.64
2023-05-23T03:40:19.404Z,59.89
2023-05-23T03:42:48.081Z,59.21
2023-05-23T03:45:14.877Z,58.65
2023-05-23T03:47:43.102Z,58.08
2023-05-23T03:50:28.654Z,57.34
2023-05-23T03:52:57.100Z,57.35
2023-05-23T03:55:25.581Z,56.95
2023-05-23T03:57:52.531Z,56.94
2023-05-23T04:00:20.249Z,56.94
2023-05-23T04:03:08.888Z,57.00
2023-05-23T04:05:36.164Z,56.75
2023-05-23T04:08:03.864Z,56.52
2023-05-23T04:10:31.295Z,56.44
2023-05-23T04:12:58.990Z,55.74
2023-05-23T04:15:25.951Z,55.89
2023-05-23T04:17:58.389Z,55.56
2023-05-23T04:20:26.718Z,55.72
2023-05-23T04:22:54.085Z,55.65
2023-05-23T04:25:40.081Z,55.73
2023-05-23T04:28:17.664Z,55.56
2023-05-23T04:30:45.193Z,55.76
2023-05-23T04:33:13.505Z,55.61
2023-05-23T04:35:41.144Z,55.63
2023-05-23T04:38:27.896Z,55.76
2023-05-23T04:40:55.512Z,55.58
2023-05-23T04:43:48.287Z,55.13
2023-05-23T04:46:27.831Z,54.94
2023-05-23T04:49:07.158Z,55.11
2023-05-23T04:51:35.438Z,55.00
2023-05-23T04:54:12.874Z,55.20
2023-05-23T04:56:40.117Z,55.24
2023-05-23T04:59:25.863Z,54.87
2023-05-23T05:01:52.932Z,54.60
2023-05-23T05:04:21.124Z,54.26
2023-05-23T05:06:48.864Z,53.88
2023-05-23T05:09:16.246Z,53.59
2023-05-23T05:11:43.850Z,53.83
2023-05-23T05:14:11.539Z,53.75
2023-05-23T05:16:38.456Z,53.76
2023-05-23T05:19:05.492Z,53.96
2023-05-23T05:21:33.868Z,54.23
2023-05-23T05:24:03.134Z,54.47
2023-05-23T05:26:30.040Z,54.83
2023-05-23T05:28:57.365Z,54.78
2023-05-23T05:31:27.345Z,54.97
2023-05-23T05:33:55.556Z,55.10
2023-05-23T05:36:22.437Z,55.06
2023-05-23T05:38:51.294Z,54.86
2023-05-23T05:41:28.997Z,54.80
2023-05-23T05:43:58.280Z,54.33
2023-05-23T05:46:25.085Z,54.84
2023-05-23T05:48:53.164Z,54.84
2023-05-23T05:51:21.881Z,55.23
2023-05-23T05:53:52.109Z,55.21
2023-05-23T05:56:19.004Z,55.33
2023-05-23T05:58:45.795Z,55.26
2023-05-23T06:01:15.752Z,55.11
2023-05-23T06:03:42.800Z,55.00
2023-05-23T06:06:10.359Z,54.64
2023-05-23T06:08:39.185Z,54.50
2023-05-23T06:11:10.586Z,54.11
2023-05-23T06:13:37.534Z,53.80
2023-05-23T06:16:05.017Z,53.29
2023-05-23T06:18:32.151Z,53.40
2023-05-23T06:20:58.962Z,53.48
2023-05-23T06:23:26.329Z,53.00
2023-05-23T06:25:53.275Z,52.98
2023-05-23T06:28:20.182Z,53.08
2023-05-23T06:30:47.032Z,52.48
2023-05-23T06:33:14.146Z,52.12
2023-05-23T06:35:42.468Z,52.11
2023-05-23T06:38:09.308Z,51.98
2023-05-23T06:40:36.181Z,52.27
2023-05-23T06:43:03.644Z,52.28
2023-05-23T06:45:54.097Z,52.53
2023-05-23T06:48:21.038Z,52.52
2023-05-23T06:50:49.455Z,51.93
2023-05-23T06:53:18.762Z,51.43
2023-05-23T06:55:46.717Z,50.49
2023-05-23T06:58:16.563Z,50.45
2023-05-23T07:00:43.892Z,49.88
2023-05-23T07:03:28.761Z,49.65
2023-05-23T07:06:00.315Z,49.29
2023-05-23T07:08:27.134Z,48.97
2023-05-23T07:10:59.715Z,48.93
2023-05-23T07:13:46.941Z,48.54
2023-05-23T07:16:21.635Z,48.72
2023-05-23T07:18:59.148Z,49.27
2023-05-23T07:21:26.069Z,49.05
2023-05-23T07:23:52.990Z,48.45
2023-05-23T07:26:21.357Z,48.63
2023-05-23T07:28:52.222Z,48.15
2023-05-23T07:31:19.127Z,47.91
2023-05-23T07:33:46.822Z,48.17
2023-05-23T07:36:20.244Z,47.79
2023-05-23T07:38:47.235Z,47.08
2023-05-23T07:41:14.502Z,47.39
2023-05-23T07:43:41.442Z,47.60
2023-05-23T07:46:08.738Z,47.47
2023-05-23T07:48:36.863Z,46.84
2023-05-23T07:51:04.148Z,47.07
2023-05-23T07:53:31.384Z,46.52
2023-05-23T07:55:58.729Z,46.21
2023-05-23T07:58:28.978Z,45.45
2023-05-23T08:00:55.827Z,45.38
2023-05-23T08:03:42.703Z,45.19
2023-05-23T08:06:15.445Z,45.17
2023-05-23T08:08:43.925Z,45.07
2023-05-23T08:11:11.003Z,44.73
2023-05-23T08:13:44.081Z,44.20
2023-05-23T08:16:38.022Z,44.35
2023-05-23T08:19:16.609Z,44.34
2023-05-23T08:21:44.700Z,43.69
2023-05-23T08:24:15.067Z,43.82
2023-05-23T08:26:43.698Z,43.29
2023-05-23T08:29:12.751Z,43.22
2023-05-23T08:31:41.160Z,43.65
2023-05-23T08:34:08.940Z,43.48
2023-05-23T08:36:41.827Z,42.98
2023-05-23T08:39:14.051Z,43.06
2023-05-23T08:41:57.096Z,43.28
2023-05-23T08:44:24.061Z,43.27
2023-05-23T08:46:58.554Z,43.71
2023-05-23T08:49:45.691Z,43.90
2023-05-23T08:52:13.597Z,44.46
2023-05-23T08:54:43.712Z,44.54
2023-05-23T08:57:13.029Z,44.56
2023-05-23T08:59:44.412Z,44.79
2023-05-23T09:02:12.236Z,45.14
2023-05-23T09:04:39.155Z,45.34
2023-05-23T09:07:20.066Z,46.67
2023-05-23T09:09:51.156Z,47.12
2023-05-23T09:12:18.274Z,46.94
2023-05-23T09:14:47.284Z,46.85
2023-05-23T09:17:20.944Z,46.08
2023-05-23T09:19:48.197Z,45.82
2023-05-23T09:22:38.085Z,45.68
2023-05-23T09:25:13.198Z,45.44
2023-05-23T09:27:43.250Z,45.11
2023-05-23T09:30:13.059Z,45.06
2023-05-23T09:32:39.989Z,44.80
2023-05-23T09:35:07.871Z,45.05
2023-05-23T09:37:41.093Z,46.12
2023-05-23T09:40:10.525Z,48.03
2023-05-23T09:42:43.558Z,48.77
2023-05-23T09:45:10.956Z,49.53
2023-05-23T09:47:37.938Z,50.46
2023-05-23T09:50:05.018Z,51.34
2023-05-23T09:52:41.236Z,51.20
2023-05-23T09:55:08.626Z,52.02
2023-05-23T09:57:37.843Z,53.37
2023-05-23T10:00:14.308Z,54.31
2023-05-23T10:02:41.175Z,55.14
2023-05-23T10:05:08.284Z,56.45
2023-05-23T10:07:35.262Z,56.70
2023-05-23T10:10:03.805Z,57.30
2023-05-23T10:12:58.431Z,57.68
2023-05-23T10:15:25.638Z,58.56
2023-05-23T10:17:52.457Z,59.69
2023-05-23T10:20:22.093Z,60.41
2023-05-23T10:22:48.944Z,62.16
2023-05-23T10:25:17.033Z,62.71
2023-05-23T10:27:43.826Z,63.20
2023-05-23T10:30:11.474Z,63.69
2023-05-23T10:32:39.179Z,63.99
2023-05-23T10:35:26.467Z,65.13
2023-05-23T10:37:56.572Z,65.76
2023-05-23T10:40:29.434Z,66.32
2023-05-23T10:43:15.262Z,66.65
2023-05-23T10:45:45.630Z,67.58
2023-05-23T10:48:42.379Z,67.79
2023-05-23T10:51:11.347Z,68.88
2023-05-23T10:53:39.162Z,69.32
2023-05-23T10:56:07.199Z,70.35
2023-05-23T10:58:34.518Z,70.70
2023-05-23T11:01:02.449Z,71.11
2023-05-23T11:03:36.791Z,71.44
2023-05-23T11:06:04.374Z,71.95
2023-05-23T11:08:47.168Z,72.26
2023-05-23T11:11:14.942Z,72.75
2023-05-23T11:13:53.844Z,73.74
2023-05-23T11:16:27.597Z,74.37
2023-05-23T11:19:13.002Z,75.40
2023-05-23T11:21:40.130Z,75.88
2023-05-23T11:24:06.984Z,76.22
2023-05-23T11:26:33.825Z,76.63
2023-05-23T11:29:00.657Z,77.56
2023-05-23T11:31:28.058Z,78.16
2023-05-23T11:33:55.320Z,78.55
2023-05-23T11:36:22.805Z,78.58
2023-05-23T11:38:53.319Z,78.89
2023-05-23T11:41:20.815Z,79.77
2023-05-23T11:43:51.857Z,80.20
2023-05-23T11:46:18.815Z,80.36
2023-05-23T11:48:46.900Z,80.67
2023-05-23T11:51:13.848Z,80.58
2023-05-23T11:53:40.964Z,80.88
2023-05-23T11:56:08.473Z,80.45
2023-05-23T11:58:36.202Z,80.07
2023-05-23T12:01:03.909Z,79.23
2023-05-23T12:03:31.995Z,78.34
2023-05-23T12:05:59.345Z,77.48
2023-05-23T12:08:26.163Z,76.58
2023-05-23T12:10:53.647Z,75.68
2023-05-23T12:13:20.676Z,75.05
2023-05-23T12:15:48.000Z,74.02
2023-05-23T12:18:17.229Z,73.45
2023-05-23T12:20:43.979Z,73.63
2023-05-23T12:23:18.244Z,73.51
2023-05-23T12:25:45.171Z,73.44
2023-05-23T12:28:13.944Z,73.57
2023-05-23T12:30:44.236Z,73.34
2023-05-23T12:33:12.120Z,73.55
2023-05-23T12:35:43.043Z,72.70
2023-05-23T12:38:10.047Z,72.08
2023-05-23T12:40:36.874Z,71.81
2023-05-23T12:43:03.633Z,71.64
2023-05-23T12:45:34.156Z,71.30
2023-05-23T12:48:02.226Z,70.94
2023-05-23T12:50:29.292Z,70.41
2023-05-23T12:52:56.745Z,70.15
2023-05-23T12:55:23.491Z,69.65
2023-05-23T12:57:50.430Z,69.11
2023-05-23T13:00:17.599Z,68.29
2023-05-23T13:02:44.549Z,67.80
2023-05-23T13:05:11.592Z,67.84
2023-05-23T13:07:38.457Z,67.83
2023-05-23T13:10:05.728Z,67.83
2023-05-23T13:12:34.414Z,67.53
2023-05-23T13:15:19.619Z,67.07
2023-05-23T13:18:05.060Z,66.31
2023-05-23T13:20:32.044Z,65.60
2023-05-23T13:22:59.145Z,66.19
2023-05-23T13:25:26.440Z,66.72
2023-05-23T13:27:53.427Z,66.92
2023-05-23T13:30:39.319Z,67.14
2023-05-23T13:33:06.569Z,67.23
2023-05-23T13:35:33.384Z,67.89
2023-05-23T13:38:00.288Z,68.62
2023-05-23T13:40:27.210Z,69.46
2023-05-23T13:42:54.135Z,69.30
2023-05-23T13:45:22.809Z,69.38
2023-05-23T13:47:49.970Z,69.51
2023-05-23T13:50:18.007Z,69.89
2023-05-23T13:52:49.039Z,69.80
2023-05-23T13:55:16.550Z,70.03
2023-05-23T13:57:43.362Z,69.78
2023-05-23T14:00:10.639Z,70.05
2023-05-23T14:02:37.589Z,70.10
2023-05-23T14:05:05.113Z,70.36
2023-05-23T14:07:32.004Z,70.26
2023-05-23T14:09:59.993Z,70.49
2023-05-23T14:12:26.863Z,70.19
2023-05-23T14:14:53.707Z,70.17
2023-05-23T14:17:20.652Z,70.10
2023-05-23T14:19:47.767Z,69.45
2023-05-23T14:22:15.224Z,68.88
2023-05-23T14:24:42.647Z,68.92
2023-05-23T14:27:11.337Z,69.06
2023-05-23T14:29:38.564Z,69.29
2023-05-23T14:32:05.491Z,69.06
2023-05-23T14:34:32.372Z,68.99
2023-05-23T14:36:59.601Z,68.83
2023-05-23T14:39:26.634Z,68.88
2023-05-23T14:41:53.486Z,69.01
2023-05-23T14:44:20.371Z,68.94
2023-05-23T14:46:50.421Z,69.13
2023-05-23T14:49:17.375Z,69.61
2023-05-23T14:51:49.701Z,70.13
2023-05-23T14:54:17.538Z,70.72
2023-05-23T14:56:44.495Z,71.26
2023-05-23T14:59:11.812Z,71.20
2023-05-23T15:01:40.403Z,71.48
2023-05-23T15:04:09.615Z,71.36
2023-05-23T15:06:38.132Z,71.28
2023-05-23T15:09:05.189Z,71.75
2023-05-23T15:12:43.410Z,71.71
2023-05-23T15:14:32.396Z,72.20
2023-05-23T15:17:07.758Z,72.62
2023-05-23T15:19:37.787Z,73.16
2023-05-23T15:22:05.261Z,73.85
2023-05-23T15:24:32.099Z,73.91
2023-05-23T15:27:11.785Z,74.40
2023-05-23T15:29:46.019Z,74.41
2023-05-23T15:32:13.226Z,74.35
2023-05-23T15:34:40.139Z,73.99
2023-05-23T15:37:06.992Z,73.83
2023-05-23T15:39:52.432Z,73.84
2023-05-23T15:42:19.670Z,73.80
2023-05-23T15:44:46.620Z,73.73
2023-05-23T15:47:13.483Z,73.58
2023-05-23T15:49:40.316Z,73.29
2023-05-23T15:52:09.935Z,73.01
2023-05-23T15:54:36.778Z,73.34
2023-05-23T15:57:03.634Z,73.23
2023-05-23T15:59:31.657Z,73.17
2023-05-23T16:01:58.632Z,73.43
2023-05-23T16:04:25.540Z,73.00
2023-05-23T16:06:52.441Z,72.98
2023-05-23T16:09:19.238Z,73.31
2023-05-23T16:11:46.138Z,73.63
2023-05-23T16:14:13.054Z,73.78
2023-05-23T16:16:40.104Z,74.01
2023-05-23T16:19:07.122Z,74.21
2023-05-23T16:21:34.206Z,74.53
2023-05-23T16:24:01.371Z,74.90
2023-05-23T16:26:28.414Z,75.05
2023-05-23T16:28:55.208Z,75.30
2023-05-23T16:31:25.814Z,75.79
2023-05-23T16:33:52.690Z,76.57
2023-05-23T16:36:19.594Z,76.96
2023-05-23T16:38:46.562Z,77.49
2023-05-23T16:41:15.684Z,77.78
2023-05-23T16:43:42.524Z,78.30
2023-05-23T16:46:10.503Z,78.94
2023-05-23T16:48:37.374Z,79.50
2023-05-23T16:51:04.383Z,80.18
2023-05-23T16:53:31.209Z,80.68
2023-05-23T16:55:58.255Z,81.10
2023-05-23T16:58:25.049Z,80.98
2023-05-23T17:00:53.025Z,81.29
2023-05-23T17:03:20.596Z,81.63
2023-05-23T17:05:47.527Z,81.90
2023-05-23T17:08:15.697Z,82.05
2023-05-23T17:10:42.877Z,82.11
2023-05-23T17:13:10.003Z,82.46
2023-05-23T17:15:37.583Z,82.85
2023-05-23T17:18:04.585Z,83.11
2023-05-23T17:20:31.501Z,83.33
2023-05-23T17:22:58.359Z,83.28
2023-05-23T17:25:25.296Z,83.58
2023-05-23T17:27:52.173Z,83.72
2023-05-23T17:30:19.200Z,83.75
2023-05-23T17:32:49.596Z,83.94
2023-05-23T17:35:16.593Z,83.91
2023-05-23T17:37:45.259Z,84.14
2023-05-23T17:40:12.619Z,84.48
2023-05-23T17:42:40.180Z,84.59
2023-05-23T17:45:09.871Z,84.58
2023-05-23T17:47:36.985Z,84.54
2023-05-23T17:50:04.633Z,84.46
2023-05-23T17:52:31.685Z,84.44
2023-05-23T17:55:06.440Z,84.49
2023-05-23T17:57:33.481Z,84.60
2023-05-23T18:00:00.392Z,84.61
2023-05-23T18:02:27.994Z,84.74
2023-05-23T18:04:55.175Z,84.96
2023-05-23T18:07:22.495Z,84.95
2023-05-23T18:09:49.654Z,85.01
2023-05-23T18:12:19.644Z,85.37
2023-05-23T18:14:46.544Z,85.62
2023-05-23T18:17:13.414Z,85.67
2023-05-23T18:19:40.606Z,85.79
2023-05-23T18:22:07.685Z,85.71
2023-05-23T18:24:53.181Z,85.84
2023-05-23T18:27:19.998Z,85.92
2023-05-23T18:29:46.940Z,86.01
2023-05-23T18:32:14.817Z,86.13
2023-05-23T18:35:00.238Z,86.22
2023-05-23T18:37:27.184Z,86.28
2023-05-23T18:40:12.649Z,86.15
2023-05-23T18:42:39.516Z,86.10
2023-05-23T18:45:06.726Z,85.96
2023-05-23T18:47:34.422Z,85.94
2023-05-23T18:50:01.514Z,85.56
2023-05-23T18:52:28.487Z,85.44
2023-05-23T18:54:55.693Z,85.18
2023-05-23T18:57:25.283Z,85.00
2023-05-23T18:59:52.108Z,84.74
2023-05-23T19:02:19.102Z,84.78
2023-05-23T19:04:46.790Z,84.67
2023-05-23T19:07:13.796Z,84.33
2023-05-23T19:09:40.701Z,84.30
2023-05-23T19:12:07.615Z,84.34
2023-05-23T19:14:34.422Z,84.24
2023-05-23T19:17:02.326Z,84.15
2023-05-23T19:19:31.522Z,83.82
2023-05-23T19:21:58.739Z,83.78
2023-05-23T19:24:28.248Z,83.41
2023-05-23T19:26:56.379Z,83.40
2023-05-23T19:29:41.973Z,83.42
2023-05-23T19:32:09.074Z,83.36
2023-05-23T19:34:36.461Z,83.49
2023-05-23T19:37:03.357Z,83.29
2023-05-23T19:39:30.194Z,83.49
2023-05-23T19:42:03.349Z,83.58
2023-05-23T19:44:49.171Z,83.55
2023-05-23T19:47:34.535Z,83.65
2023-05-23T19:50:02.527Z,83.38
2023-05-23T19:52:30.910Z,83.82
2023-05-23T19:54:57.692Z,83.78
2023-05-23T19:57:26.234Z,83.68
2023-05-23T19:59:53.496Z,83.41
2023-05-23T20:02:20.631Z,83.66
2023-05-23T20:04:47.454Z,83.68
2023-05-23T20:07:14.303Z,83.78
2023-05-23T20:09:41.085Z,84.13
2023-05-23T20:12:08.468Z,84.03
2023-05-23T20:14:35.497Z,84.17
2023-05-23T20:17:02.328Z,84.26
2023-05-23T20:19:29.146Z,84.11
2023-05-23T20:21:57.433Z,84.17
2023-05-23T20:24:27.341Z,84.27
2023-05-23T20:26:54.282Z,84.18
2023-05-23T20:29:21.072Z,84.16
2023-05-23T20:31:48.107Z,83.97
2023-05-23T20:34:14.959Z,84.15
2023-05-23T20:36:41.816Z,84.09
2023-05-23T20:39:09.522Z,84.21
2023-05-23T20:41:36.633Z,84.31
2023-05-23T20:44:03.371Z,84.45
2023-05-23T20:46:30.218Z,84.49
2023-05-23T20:48:57.733Z,84.28
2023-05-23T20:51:24.834Z,84.42
2023-05-23T20:53:53.274Z,84.51
2023-05-23T20:56:20.176Z,84.68
2023-05-23T20:58:47.409Z,84.69
2023-05-23T21:01:15.190Z,84.69
2023-05-23T21:03:42.272Z,84.62
2023-05-23T21:06:09.185Z,84.74
2023-05-23T21:08:36.513Z,84.90
2023-05-23T21:11:03.521Z,85.11
2023-05-23T21:13:30.527Z,85.38
2023-05-23T21:15:57.283Z,85.34
2023-05-23T21:18:24.305Z,85.47
2023-05-23T21:20:51.296Z,85.64
2023-05-23T21:23:18.045Z,85.56
2023-05-23T21:25:45.001Z,85.73
2023-05-23T21:28:11.769Z,86.01
2023-05-23T21:30:38.915Z,86.24
2023-05-23T21:33:06.169Z,86.29
2023-05-23T21:35:36.074Z,86.51
2023-05-23T21:38:02.845Z,86.62
2023-05-23T21:40:29.740Z,86.66
2023-05-23T21:42:56.690Z,86.96
2023-05-23T21:45:23.445Z,86.90
2023-05-23T21:47:51.652Z,87.13
2023-05-23T21:50:18.672Z,87.27
2023-05-23T21:52:45.648Z,87.54
2023-05-23T21:55:12.540Z,87.75
2023-05-23T21:57:39.333Z,87.88
2023-05-23T22:00:10.474Z,87.95
2023-05-23T22:02:39.946Z,87.94
2023-05-23T22:05:10.193Z,87.96
2023-05-23T22:07:37.092Z,87.78
2023-05-23T22:10:04.062Z,87.85
2023-05-23T22:12:31.006Z,87.71
2023-05-23T22:14:57.809Z,87.74
2023-05-23T22:17:26.487Z,87.75
2023-05-23T22:19:53.481Z,87.64
2023-05-23T22:22:20.405Z,87.63
2023-05-23T22:24:47.500Z,87.80
2023-05-23T22:27:14.283Z,87.51
2023-05-23T22:29:41.320Z,87.73
2023-05-23T22:32:08.263Z,87.55
2023-05-23T22:34:35.285Z,87.30
2023-05-23T22:37:03.557Z,87.08
2023-05-23T22:39:30.352Z,86.58
2023-05-23T22:41:57.244Z,86.60
2023-05-23T22:44:23.960Z,86.23
2023-05-23T22:46:52.267Z,85.91
2023-05-23T22:49:21.935Z,85.74
2023-05-23T22:51:48.887Z,85.26
2023-05-23T22:54:15.938Z,84.91
2023-05-23T22:56:42.718Z,84.38
2023-05-23T22:59:09.574Z,83.93
2023-05-23T23:01:36.615Z,83.49
2023-05-23T23:04:03.460Z,83.41
2023-05-23T23:06:30.295Z,83.48
2023-05-23T23:08:57.328Z,83.63
2023-05-23T23:11:24.092Z,84.03
2023-05-23T23:13:50.923Z,84.31
2023-05-23T23:16:19.533Z,84.52
2023-05-23T23:18:47.266Z,84.81
2023-05-23T23:21:14.086Z,84.83
2023-05-23T23:23:41.963Z,84.73
2023-05-23T23:26:08.711Z,84.25
2023-05-23T23:28:35.574Z,83.99
2023-05-23T23:31:02.348Z,83.86
2023-05-23T23:33:29.531Z,83.36
2023-05-23T23:35:56.630Z,82.55
2023-05-23T23:38:23.442Z,81.57
2023-05-23T23:40:50.271Z,81.32
2023-05-23T23:43:17.107Z,81.43
2023-05-23T23:45:43.895Z,81.39
2023-05-23T23:48:10.984Z,81.13
2023-05-23T23:50:37.773Z,81.17
2023-05-23T23:53:04.662Z,81.14
2023-05-23T23:55:31.590Z,81.20
2023-05-23T23:57:58.356Z,81.54
